sensor_id;sensor_type;location;lat;lon;timestamp;pressure;altitude;pressure_sealevel;temperature;humidity
59487;BME280;45298;54.918;73.504;2024-02-16T00:01:27;101488.63;;;-27.91;73.72
59487;BME280;45298;54.918;73.504;2024-02-16T00:03:56;101514.28;;;-27.85;73.63
59487;BME280;45298;54.918;73.504;2024-02-16T00:06:25;101497.94;;;-27.97;73.35
59487;BME280;45298;54.918;73.504;2024-02-16T00:08:55;101526.75;;;-27.85;73.74
59487;BME280;45298;54.918;73.504;2024-02-16T00:11:23;101525.50;;;-27.89;73.62
59487;BME280;45298;54.918;73.504;2024-02-16T00:13:53;101520.34;;;-27.90;73.59
59487;BME280;45298;54.918;73.504;2024-02-16T00:16:24;101507.56;;;-28.01;73.36
59487;BME280;45298;54.918;73.504;2024-02-16T00:18:53;101535.66;;;-27.87;73.88
59487;BME280;45298;54.918;73.504;2024-02-16T00:21:22;101537.97;;;-27.89;73.40
59487;BME280;45298;54.918;73.504;2024-02-16T00:23:51;101542.06;;;-27.89;73.71
59487;BME280;45298;54.918;73.504;2024-02-16T00:26:21;101537.25;;;-27.88;73.68
59487;BME280;45298;54.918;73.504;2024-02-16T00:28:51;101532.09;;;-27.89;73.60
59487;BME280;45298;54.918;73.504;2024-02-16T00:31:21;101550.59;;;-27.80;74.02
59487;BME280;45298;54.918;73.504;2024-02-16T00:33:51;101547.59;;;-27.84;73.68
59487;BME280;45298;54.918;73.504;2024-02-16T00:36:21;101548.81;;;-27.81;73.58
59487;BME280;45298;54.918;73.504;2024-02-16T00:38:50;101536.56;;;-27.87;73.62
59487;BME280;45298;54.918;73.504;2024-02-16T00:41:20;101537.97;;;-27.89;73.55
59487;BME280;45298;54.918;73.504;2024-02-16T00:43:50;101486.78;;;-28.16;73.44
59487;BME280;45298;54.918;73.504;2024-02-16T00:46:20;101552.75;;;-27.83;73.37
59487;BME280;45298;54.918;73.504;2024-02-16T00:48:54;101553.28;;;-27.86;73.67
59487;BME280;45298;54.918;73.504;2024-02-16T00:51:23;101559.50;;;-27.82;73.39
59487;BME280;45298;54.918;73.504;2024-02-16T00:53:54;101555.59;;;-27.87;73.70
59487;BME280;45298;54.918;73.504;2024-02-16T00:56:23;101558.78;;;-27.88;73.58
59487;BME280;45298;54.918;73.504;2024-02-16T00:58:53;101568.41;;;-27.84;73.61
59487;BME280;45298;54.918;73.504;2024-02-16T01:01:24;101560.56;;;-27.87;73.60
59487;BME280;45298;54.918;73.504;2024-02-16T01:03:55;101547.06;;;-27.96;73.79
59487;BME280;45298;54.918;73.504;2024-02-16T01:06:24;101565.19;;;-27.90;74.08
59487;BME280;45298;54.918;73.504;2024-02-16T01:08:54;101582.66;;;-27.83;73.86
59487;BME280;45298;54.918;73.504;2024-02-16T01:11:25;101596.53;;;-27.85;73.76
59487;BME280;45298;54.918;73.504;2024-02-16T01:13:55;101599.41;;;-27.82;73.89
59487;BME280;45298;54.918;73.504;2024-02-16T01:16:25;101598.16;;;-27.86;73.60
59487;BME280;45298;54.918;73.504;2024-02-16T01:18:55;101570.94;;;-27.98;73.35
59487;BME280;45298;54.918;73.504;2024-02-16T01:21:37;101585.16;;;-27.90;73.80
59487;BME280;45298;54.918;73.504;2024-02-16T01:24:06;101600.81;;;-27.84;73.53
59487;BME280;45298;54.918;73.504;2024-02-16T01:26:37;101599.38;;;-27.89;73.62
59487;BME280;45298;54.918;73.504;2024-02-16T01:29:08;101618.81;;;-27.87;74.04
59487;BME280;45298;54.918;73.504;2024-02-16T01:31:37;101614.69;;;-27.86;73.61
59487;BME280;45298;54.918;73.504;2024-02-16T01:34:06;101615.97;;;-27.90;73.78
59487;BME280;45298;54.918;73.504;2024-02-16T01:36:36;101614.19;;;-27.91;73.87
59487;BME280;45298;54.918;73.504;2024-02-16T01:39:07;101611.16;;;-27.95;74.03
59487;BME280;45298;54.918;73.504;2024-02-16T01:41:39;101631.78;;;-27.89;73.67
59487;BME280;45298;54.918;73.504;2024-02-16T01:44:08;101622.34;;;-27.99;73.62
59487;BME280;45298;54.918;73.504;2024-02-16T01:46:37;101644.09;;;-28.05;73.59
59487;BME280;45298;54.918;73.504;2024-02-16T01:49:06;101628.78;;;-27.94;73.60
59487;BME280;45298;54.918;73.504;2024-02-16T01:51:37;101630.38;;;-28.02;73.85
59487;BME280;45298;54.918;73.504;2024-02-16T01:54:06;101643.91;;;-27.92;73.57
59487;BME280;45298;54.918;73.504;2024-02-16T01:56:35;101591.25;;;-28.24;73.53
59487;BME280;45298;54.918;73.504;2024-02-16T01:59:04;101638.94;;;-27.99;73.77
59487;BME280;45298;54.918;73.504;2024-02-16T02:01:33;101647.84;;;-27.94;73.56
59487;BME280;45298;54.918;73.504;2024-02-16T02:04:02;101646.19;;;-28.01;73.70
59487;BME280;45298;54.918;73.504;2024-02-16T02:06:32;101651.38;;;-27.99;73.71
59487;BME280;45298;54.918;73.504;2024-02-16T02:09:03;101662.41;;;-27.90;73.53
59487;BME280;45298;54.918;73.504;2024-02-16T02:11:33;101673.47;;;-27.88;73.65
59487;BME280;45298;54.918;73.504;2024-02-16T02:14:02;101652.81;;;-28.02;73.55
59487;BME280;45298;54.918;73.504;2024-02-16T02:16:30;101673.81;;;-27.92;73.43
59487;BME280;45298;54.918;73.504;2024-02-16T02:19:13;101675.94;;;-27.88;73.40
59487;BME280;45298;54.918;73.504;2024-02-16T02:21:55;101675.06;;;-27.96;73.90
59487;BME280;45298;54.918;73.504;2024-02-16T02:24:24;101658.50;;;-28.03;73.58
59487;BME280;45298;54.918;73.504;2024-02-16T02:26:53;101663.13;;;-27.98;73.41
59487;BME280;45298;54.918;73.504;2024-02-16T02:29:23;101687.72;;;-27.94;73.89
59487;BME280;45298;54.918;73.504;2024-02-16T02:31:52;101669.72;;;-27.99;73.87
59487;BME280;45298;54.918;73.504;2024-02-16T02:34:21;101675.97;;;-27.95;73.42
59487;BME280;45298;54.918;73.504;2024-02-16T02:36:50;101699.81;;;-27.90;73.37
59487;BME280;45298;54.918;73.504;2024-02-16T02:39:19;101690.22;;;-27.94;73.50
59487;BME280;45298;54.918;73.504;2024-02-16T02:41:48;101701.59;;;-27.89;73.44
59487;BME280;45298;54.918;73.504;2024-02-16T02:44:18;101700.00;;;-27.89;73.64
59487;BME280;45298;54.918;73.504;2024-02-16T02:46:47;101708.19;;;-27.82;73.90
59487;BME280;45298;54.918;73.504;2024-02-16T02:49:18;101680.94;;;-28.10;73.45
59487;BME280;45298;54.918;73.504;2024-02-16T02:51:48;101727.97;;;-27.84;73.67
59487;BME280;45298;54.918;73.504;2024-02-16T02:54:18;101725.09;;;-27.87;72.98
59487;BME280;45298;54.918;73.504;2024-02-16T02:57:08;101719.78;;;-27.83;73.23
59487;BME280;45298;54.918;73.504;2024-02-16T02:59:37;101733.28;;;-27.74;73.40
59487;BME280;45298;54.918;73.504;2024-02-16T03:02:07;101749.91;;;-27.67;73.06
59487;BME280;45298;54.918;73.504;2024-02-16T03:04:37;101761.84;;;-27.57;73.35
59487;BME280;45298;54.918;73.504;2024-02-16T03:07:06;101774.84;;;-27.52;73.39
59487;BME280;45298;54.918;73.504;2024-02-16T03:09:36;101763.25;;;-27.59;73.09
59487;BME280;45298;54.918;73.504;2024-02-16T03:12:06;101782.16;;;-27.47;73.71
59487;BME280;45298;54.918;73.504;2024-02-16T03:14:37;101775.56;;;-27.46;73.22
59487;BME280;45298;54.918;73.504;2024-02-16T03:17:09;101769.66;;;-27.47;73.08
59487;BME280;45298;54.918;73.504;2024-02-16T03:19:38;101777.84;;;-27.41;73.64
59487;BME280;45298;54.918;73.504;2024-02-16T03:22:07;101761.47;;;-27.38;73.08
59487;BME280;45298;54.918;73.504;2024-02-16T03:24:36;101774.63;;;-27.32;73.00
59487;BME280;45298;54.918;73.504;2024-02-16T03:27:05;101775.34;;;-27.26;72.93
59487;BME280;45298;54.918;73.504;2024-02-16T03:29:34;101790.69;;;-27.16;73.28
59487;BME280;45298;54.918;73.504;2024-02-16T03:32:03;101778.91;;;-27.24;72.99
59487;BME280;45298;54.918;73.504;2024-02-16T03:34:31;101742.22;;;-27.40;73.31
59487;BME280;45298;54.918;73.504;2024-02-16T03:37:13;101778.03;;;-27.17;73.12
59487;BME280;45298;54.918;73.504;2024-02-16T03:39:42;101791.88;;;-26.83;73.54
59487;BME280;45298;54.918;73.504;2024-02-16T03:42:11;101822.69;;;-26.61;72.80
59487;BME280;45298;54.918;73.504;2024-02-16T03:44:40;101796.81;;;-26.61;73.30
59487;BME280;45298;54.918;73.504;2024-02-16T03:47:10;101791.00;;;-26.24;72.34
59487;BME280;45298;54.918;73.504;2024-02-16T03:49:39;101825.75;;;-25.74;72.45
59487;BME280;45298;54.918;73.504;2024-02-16T03:52:08;101815.16;;;-25.64;71.94
59487;BME280;45298;54.918;73.504;2024-02-16T03:54:37;101806.97;;;-25.70;71.64
59487;BME280;45298;54.918;73.504;2024-02-16T03:57:05;101813.91;;;-25.67;71.33
59487;BME280;45298;54.918;73.504;2024-02-16T03:59:37;101830.50;;;-25.61;71.08
59487;BME280;45298;54.918;73.504;2024-02-16T04:02:06;101833.66;;;-25.47;71.56
59487;BME280;45298;54.918;73.504;2024-02-16T04:04:35;101835.88;;;-25.65;71.75
59487;BME280;45298;54.918;73.504;2024-02-16T04:07:04;101827.78;;;-25.85;71.61
59487;BME280;45298;54.918;73.504;2024-02-16T04:09:35;101841.72;;;-25.95;71.29
59487;BME280;45298;54.918;73.504;2024-02-16T04:12:04;101847.16;;;-26.06;71.52
59487;BME280;45298;54.918;73.504;2024-02-16T04:14:33;101863.19;;;-25.97;71.39
59487;BME280;45298;54.918;73.504;2024-02-16T04:17:03;101854.97;;;-25.96;71.55
59487;BME280;45298;54.918;73.504;2024-02-16T04:19:38;101836.22;;;-25.99;71.88
59487;BME280;45298;54.918;73.504;2024-02-16T04:22:12;101843.88;;;-25.91;71.42
59487;BME280;45298;54.918;73.504;2024-02-16T04:24:49;101868.50;;;-25.79;71.66
59487;BME280;45298;54.918;73.504;2024-02-16T04:27:18;101854.56;;;-25.84;71.81
59487;BME280;45298;54.918;73.504;2024-02-16T04:29:47;101854.00;;;-25.82;72.05
59487;BME280;45298;54.918;73.504;2024-02-16T04:32:17;101871.44;;;-25.67;72.03
59487;BME280;45298;54.918;73.504;2024-02-16T04:34:47;101860.59;;;-25.75;71.76
59487;BME280;45298;54.918;73.504;2024-02-16T04:37:16;101856.00;;;-25.79;71.39
59487;BME280;45298;54.918;73.504;2024-02-16T04:39:47;101837.28;;;-25.90;71.97
59487;BME280;45298;54.918;73.504;2024-02-16T04:42:16;101833.88;;;-25.91;71.07
59487;BME280;45298;54.918;73.504;2024-02-16T04:44:45;101872.72;;;-25.64;71.35
59487;BME280;45298;54.918;73.504;2024-02-16T04:47:14;101891.22;;;-25.54;71.37
59487;BME280;45298;54.918;73.504;2024-02-16T04:49:43;101889.06;;;-25.51;71.37
59487;BME280;45298;54.918;73.504;2024-02-16T04:52:12;101878.00;;;-25.53;71.71
59487;BME280;45298;54.918;73.504;2024-02-16T04:54:41;101881.19;;;-25.47;71.54
59487;BME280;45298;54.918;73.504;2024-02-16T04:57:10;101890.03;;;-25.35;71.54
59487;BME280;45298;54.918;73.504;2024-02-16T04:59:39;101874.13;;;-25.35;71.29
59487;BME280;45298;54.918;73.504;2024-02-16T05:02:08;101888.22;;;-25.29;70.77
59487;BME280;45298;54.918;73.504;2024-02-16T05:04:37;101881.91;;;-25.25;70.95
59487;BME280;45298;54.918;73.504;2024-02-16T05:07:06;101891.94;;;-25.25;70.80
59487;BME280;45298;54.918;73.504;2024-02-16T05:09:36;101889.22;;;-25.19;70.89
59487;BME280;45298;54.918;73.504;2024-02-16T05:12:05;101813.00;;;-25.61;70.36
59487;BME280;45298;54.918;73.504;2024-02-16T05:14:35;101902.50;;;-24.97;70.78
59487;BME280;45298;54.918;73.504;2024-02-16T05:17:04;101913.25;;;-24.75;70.44
59487;BME280;45298;54.918;73.504;2024-02-16T05:19:35;101892.13;;;-24.77;70.65
59487;BME280;45298;54.918;73.504;2024-02-16T05:22:05;101886.75;;;-24.73;70.59
59487;BME280;45298;54.918;73.504;2024-02-16T05:24:34;101899.53;;;-24.46;70.59
59487;BME280;45298;54.918;73.504;2024-02-16T05:27:05;101901.03;;;-24.32;70.30
59487;BME280;45298;54.918;73.504;2024-02-16T05:29:36;101889.88;;;-24.27;69.59
59487;BME280;45298;54.918;73.504;2024-02-16T05:32:17;101897.41;;;-24.11;69.67
59487;BME280;45298;54.918;73.504;2024-02-16T05:34:46;101907.03;;;-23.91;69.49
59487;BME280;45298;54.918;73.504;2024-02-16T05:37:17;101895.94;;;-23.77;69.31
59487;BME280;45298;54.918;73.504;2024-02-16T05:39:48;101903.44;;;-23.45;69.42
59487;BME280;45298;54.918;73.504;2024-02-16T05:42:26;101904.00;;;-23.48;68.91
59487;BME280;45298;54.918;73.504;2024-02-16T05:44:55;101906.31;;;-23.33;69.32
59487;BME280;45298;54.918;73.504;2024-02-16T05:47:24;101901.13;;;-23.10;68.98
59487;BME280;45298;54.918;73.504;2024-02-16T05:49:53;101901.94;;;-22.93;68.72
59487;BME280;45298;54.918;73.504;2024-02-16T05:52:22;101893.72;;;-22.84;68.76
59487;BME280;45298;54.918;73.504;2024-02-16T05:55:04;101901.13;;;-22.85;68.52
59487;BME280;45298;54.918;73.504;2024-02-16T05:57:32;101915.50;;;-22.75;68.12
59487;BME280;45298;54.918;73.504;2024-02-16T06:00:06;101910.59;;;-22.83;67.71
59487;BME280;45298;54.918;73.504;2024-02-16T06:02:35;101918.84;;;-22.84;67.96
59487;BME280;45298;54.918;73.504;2024-02-16T06:05:04;101907.56;;;-22.96;68.80
59487;BME280;45298;54.918;73.504;2024-02-16T06:07:35;101950.28;;;-22.96;68.26
59487;BME280;45298;54.918;73.504;2024-02-16T06:10:18;101948.09;;;-22.93;68.53
59487;BME280;45298;54.918;73.504;2024-02-16T06:12:47;101885.50;;;-23.07;68.54
59487;BME280;45298;54.918;73.504;2024-02-16T06:15:16;101914.69;;;-22.67;68.18
59487;BME280;45298;54.918;73.504;2024-02-16T06:17:48;101932.56;;;-22.64;68.13
59487;BME280;45298;54.918;73.504;2024-02-16T06:20:18;101927.53;;;-22.64;67.52
59487;BME280;45298;54.918;73.504;2024-02-16T06:22:48;101943.47;;;-22.39;68.16
59487;BME280;45298;54.918;73.504;2024-02-16T06:25:17;101924.22;;;-22.38;68.23
59487;BME280;45298;54.918;73.504;2024-02-16T06:27:47;101930.56;;;-22.08;68.34
59487;BME280;45298;54.918;73.504;2024-02-16T06:30:18;101922.53;;;-22.04;66.35
59487;BME280;45298;54.918;73.504;2024-02-16T06:32:48;101935.59;;;-22.08;66.40
59487;BME280;45298;54.918;73.504;2024-02-16T06:35:17;101935.00;;;-22.06;65.23
59487;BME280;45298;54.918;73.504;2024-02-16T06:37:46;101957.53;;;-21.98;65.11
59487;BME280;45298;54.918;73.504;2024-02-16T06:40:15;101949.97;;;-21.98;65.65
59487;BME280;45298;54.918;73.504;2024-02-16T06:42:45;101940.03;;;-21.97;65.84
59487;BME280;45298;54.918;73.504;2024-02-16T06:45:15;101959.03;;;-21.83;66.71
59487;BME280;45298;54.918;73.504;2024-02-16T06:47:43;101937.38;;;-21.98;66.39
59487;BME280;45298;54.918;73.504;2024-02-16T06:50:13;101951.28;;;-21.93;66.26
59487;BME280;45298;54.918;73.504;2024-02-16T06:52:42;101971.78;;;-21.72;66.51
59487;BME280;45298;54.918;73.504;2024-02-16T06:55:11;101987.50;;;-21.57;65.93
59487;BME280;45298;54.918;73.504;2024-02-16T06:57:40;101966.47;;;-21.67;66.21
59487;BME280;45298;54.918;73.504;2024-02-16T07:00:13;101965.72;;;-21.66;66.53
59487;BME280;45298;54.918;73.504;2024-02-16T07:02:43;101984.84;;;-21.50;66.72
59487;BME280;45298;54.918;73.504;2024-02-16T07:05:13;101934.31;;;-21.78;65.32
59487;BME280;45298;54.918;73.504;2024-02-16T07:07:41;101983.50;;;-21.38;64.88
59487;BME280;45298;54.918;73.504;2024-02-16T07:10:12;101980.13;;;-21.30;66.01
59487;BME280;45298;54.918;73.504;2024-02-16T07:12:52;101932.69;;;-21.34;65.20
59487;BME280;45298;54.918;73.504;2024-02-16T07:15:22;101981.72;;;-20.86;65.88
59487;BME280;45298;54.918;73.504;2024-02-16T07:17:50;101978.84;;;-20.72;65.86
59487;BME280;45298;54.918;73.504;2024-02-16T07:20:20;101992.44;;;-20.43;66.05
59487;BME280;45298;54.918;73.504;2024-02-16T07:22:48;101967.69;;;-20.19;66.36
59487;BME280;45298;54.918;73.504;2024-02-16T07:25:19;101994.22;;;-20.05;64.65
59487;BME280;45298;54.918;73.504;2024-02-16T07:27:48;101981.00;;;-20.03;64.04
59487;BME280;45298;54.918;73.504;2024-02-16T07:30:19;101976.44;;;-20.16;63.48
59487;BME280;45298;54.918;73.504;2024-02-16T07:33:00;102008.28;;;-20.27;64.09
59487;BME280;45298;54.918;73.504;2024-02-16T07:35:29;102000.13;;;-20.33;64.27
59487;BME280;45298;54.918;73.504;2024-02-16T07:37:58;102016.44;;;-20.20;64.69
59487;BME280;45298;54.918;73.504;2024-02-16T07:40:26;102016.44;;;-20.20;64.62
59487;BME280;45298;54.918;73.504;2024-02-16T07:42:55;102008.69;;;-20.22;63.87
59487;BME280;45298;54.918;73.504;2024-02-16T07:45:24;102019.25;;;-20.26;63.73
59487;BME280;45298;54.918;73.504;2024-02-16T07:47:57;102019.44;;;-20.33;64.63
59487;BME280;45298;54.918;73.504;2024-02-16T07:50:26;102008.94;;;-20.56;64.47
59487;BME280;45298;54.918;73.504;2024-02-16T07:52:54;102009.66;;;-20.48;64.79
59487;BME280;45298;54.918;73.504;2024-02-16T07:55:23;101999.09;;;-20.44;65.82
59487;BME280;45298;54.918;73.504;2024-02-16T07:57:52;102001.97;;;-20.58;64.94
59487;BME280;45298;54.918;73.504;2024-02-16T08:00:21;102001.06;;;-20.68;64.72
59487;BME280;45298;54.918;73.504;2024-02-16T08:02:50;102009.88;;;-20.73;65.22
59487;BME280;45298;54.918;73.504;2024-02-16T08:05:31;102016.19;;;-20.59;66.18
59487;BME280;45298;54.918;73.504;2024-02-16T08:08:00;102010.38;;;-20.49;65.52
59487;BME280;45298;54.918;73.504;2024-02-16T08:10:29;102014.69;;;-20.48;65.64
59487;BME280;45298;54.918;73.504;2024-02-16T08:12:58;102009.84;;;-20.55;65.93
59487;BME280;45298;54.918;73.504;2024-02-16T08:15:27;102018.41;;;-20.35;65.88
59487;BME280;45298;54.918;73.504;2024-02-16T08:17:56;102018.88;;;-20.48;64.89
59487;BME280;45298;54.918;73.504;2024-02-16T08:20:28;102035.06;;;-20.55;64.82
59487;BME280;45298;54.918;73.504;2024-02-16T08:22:57;102018.91;;;-20.75;64.65
59487;BME280;45298;54.918;73.504;2024-02-16T08:25:28;101979.34;;;-20.93;66.19
59487;BME280;45298;54.918;73.504;2024-02-16T08:27:59;102007.34;;;-20.73;65.79
59487;BME280;45298;54.918;73.504;2024-02-16T08:30:29;101984.84;;;-20.98;65.46
59487;BME280;45298;54.918;73.504;2024-02-16T08:32:58;102040.44;;;-20.70;66.33
59487;BME280;45298;54.918;73.504;2024-02-16T08:35:28;102026.34;;;-20.85;65.62
59487;BME280;45298;54.918;73.504;2024-02-16T08:37:59;102023.41;;;-20.99;66.08
59487;BME280;45298;54.918;73.504;2024-02-16T08:40:28;102023.09;;;-21.02;66.71
59487;BME280;45298;54.918;73.504;2024-02-16T08:42:57;102029.94;;;-21.09;65.83
59487;BME280;45298;54.918;73.504;2024-02-16T08:45:27;102030.84;;;-21.09;65.98
59487;BME280;45298;54.918;73.504;2024-02-16T08:47:56;102039.72;;;-21.04;65.91
59487;BME280;45298;54.918;73.504;2024-02-16T08:50:27;102030.97;;;-21.16;66.12
59487;BME280;45298;54.918;73.504;2024-02-16T08:52:58;102025.94;;;-21.16;65.91
59487;BME280;45298;54.918;73.504;2024-02-16T08:55:28;102013.88;;;-21.36;66.05
59487;BME280;45298;54.918;73.504;2024-02-16T08:57:58;102034.66;;;-21.39;66.29
59487;BME280;45298;54.918;73.504;2024-02-16T09:00:31;102034.91;;;-21.53;65.91
59487;BME280;45298;54.918;73.504;2024-02-16T09:02:59;102032.56;;;-21.61;66.57
59487;BME280;45298;54.918;73.504;2024-02-16T09:05:33;102035.47;;;-21.56;66.94
59487;BME280;45298;54.918;73.504;2024-02-16T09:08:02;102041.28;;;-21.66;66.21
59487;BME280;45298;54.918;73.504;2024-02-16T09:10:31;102049.13;;;-21.63;67.68
59487;BME280;45298;54.918;73.504;2024-02-16T09:13:03;102039.06;;;-21.63;67.19
59487;BME280;45298;54.918;73.504;2024-02-16T09:15:32;102050.63;;;-21.65;67.62
59487;BME280;45298;54.918;73.504;2024-02-16T09:18:01;102055.06;;;-21.71;67.15
59487;BME280;45298;54.918;73.504;2024-02-16T09:20:30;102046.16;;;-21.76;67.17
59487;BME280;45298;54.918;73.504;2024-02-16T09:22:59;102043.56;;;-21.94;67.15
59487;BME280;45298;54.918;73.504;2024-02-16T09:25:28;102002.09;;;-22.31;66.71
59487;BME280;45298;54.918;73.504;2024-02-16T09:27:57;102042.44;;;-22.13;67.20
59487;BME280;45298;54.918;73.504;2024-02-16T09:30:26;102039.81;;;-22.06;67.69
59487;BME280;45298;54.918;73.504;2024-02-16T09:32:55;102054.69;;;-21.92;67.94
59487;BME280;45298;54.918;73.504;2024-02-16T09:35:23;102046.72;;;-21.87;68.45
59487;BME280;45298;54.918;73.504;2024-02-16T09:37:55;102049.25;;;-21.79;67.80
59487;BME280;45298;54.918;73.504;2024-02-16T09:40:24;102045.22;;;-21.85;67.49
59487;BME280;45298;54.918;73.504;2024-02-16T09:42:54;102067.88;;;-21.85;67.77
59487;BME280;45298;54.918;73.504;2024-02-16T09:45:24;102066.56;;;-21.82;68.41
59487;BME280;45298;54.918;73.504;2024-02-16T09:47:57;102080.97;;;-21.72;68.03
59487;BME280;45298;54.918;73.504;2024-02-16T09:50:34;102057.38;;;-21.81;67.99
59487;BME280;45298;54.918;73.504;2024-02-16T09:53:06;102069.84;;;-21.74;67.96
59487;BME280;45298;54.918;73.504;2024-02-16T09:55:35;102076.06;;;-21.79;67.56
59487;BME280;45298;54.918;73.504;2024-02-16T09:58:04;102082.88;;;-21.78;67.89
59487;BME280;45298;54.918;73.504;2024-02-16T10:00:33;102064.03;;;-21.91;67.21
59487;BME280;45298;54.918;73.504;2024-02-16T10:03:02;102083.13;;;-21.93;67.25
59487;BME280;45298;54.918;73.504;2024-02-16T10:05:35;102097.63;;;-21.90;67.89
59487;BME280;45298;54.918;73.504;2024-02-16T10:08:14;102078.59;;;-22.04;68.20
59487;BME280;45298;54.918;73.504;2024-02-16T10:10:43;102094.63;;;-22.03;68.08
59487;BME280;45298;54.918;73.504;2024-02-16T10:13:13;102095.50;;;-22.03;67.37
59487;BME280;45298;54.918;73.504;2024-02-16T10:15:42;102111.28;;;-21.88;68.25
59487;BME280;45298;54.918;73.504;2024-02-16T10:18:13;102090.50;;;-21.94;68.22
59487;BME280;45298;54.918;73.504;2024-02-16T10:20:44;102100.16;;;-21.90;67.79
59487;BME280;45298;54.918;73.504;2024-02-16T10:23:15;102112.25;;;-21.70;68.27
59487;BME280;45298;54.918;73.504;2024-02-16T10:25:44;102088.78;;;-21.86;68.33
59487;BME280;45298;54.918;73.504;2024-02-16T10:28:13;102068.84;;;-22.01;68.40
59487;BME280;45298;54.918;73.504;2024-02-16T10:30:43;102117.84;;;-21.72;68.00
59487;BME280;45298;54.918;73.504;2024-02-16T10:33:13;102115.72;;;-21.85;68.55
59487;BME280;45298;54.918;73.504;2024-02-16T10:35:43;102123.06;;;-21.96;68.21
59487;BME280;45298;54.918;73.504;2024-02-16T10:38:15;102154.63;;;-21.99;68.20
59487;BME280;45298;54.918;73.504;2024-02-16T10:40:47;102138.03;;;-22.22;67.63
59487;BME280;45298;54.918;73.504;2024-02-16T10:43:18;102131.34;;;-22.22;67.85
59487;BME280;45298;54.918;73.504;2024-02-16T10:45:47;102155.06;;;-22.20;67.75
59487;BME280;45298;54.918;73.504;2024-02-16T10:48:20;102151.66;;;-22.20;68.62
59487;BME280;45298;54.918;73.504;2024-02-16T10:50:51;102135.22;;;-22.41;67.91
59487;BME280;45298;54.918;73.504;2024-02-16T10:53:26;102138.50;;;-22.42;67.89
59487;BME280;45298;54.918;73.504;2024-02-16T10:55:58;102159.34;;;-22.43;67.89
59487;BME280;45298;54.918;73.504;2024-02-16T10:58:33;102166.91;;;-22.43;68.77
59487;BME280;45298;54.918;73.504;2024-02-16T11:01:09;102160.91;;;-22.53;68.09
59487;BME280;45298;54.918;73.504;2024-02-16T11:03:39;102148.44;;;-22.60;68.73
59487;BME280;45298;54.918;73.504;2024-02-16T11:06:18;102178.28;;;-22.47;68.99
59487;BME280;45298;54.918;73.504;2024-02-16T11:08:49;102155.72;;;-22.54;69.08
59487;BME280;45298;54.918;73.504;2024-02-16T11:11:24;102173.72;;;-22.42;68.93
59487;BME280;45298;54.918;73.504;2024-02-16T11:13:55;102166.94;;;-22.59;68.60
59487;BME280;45298;54.918;73.504;2024-02-16T11:16:25;102149.47;;;-22.74;68.74
59487;BME280;45298;54.918;73.504;2024-02-16T11:18:58;102176.66;;;-22.62;68.62
59487;BME280;45298;54.918;73.504;2024-02-16T11:21:27;102203.41;;;-22.63;68.49
59487;BME280;45298;54.918;73.504;2024-02-16T11:24:06;102182.34;;;-22.72;69.47
59487;BME280;45298;54.918;73.504;2024-02-16T11:26:43;102196.03;;;-22.77;68.68
59487;BME280;45298;54.918;73.504;2024-02-16T11:29:13;102205.44;;;-22.84;68.88
59487;BME280;45298;54.918;73.504;2024-02-16T11:31:43;102224.19;;;-22.73;68.90
59487;BME280;45298;54.918;73.504;2024-02-16T11:34:23;102177.84;;;-23.07;69.29
59487;BME280;45298;54.918;73.504;2024-02-16T11:37:04;102208.78;;;-22.92;69.08
59487;BME280;45298;54.918;73.504;2024-02-16T11:39:35;102237.47;;;-22.90;69.24
59487;BME280;45298;54.918;73.504;2024-02-16T11:42:11;102230.56;;;-23.00;69.21
59487;BME280;45298;54.918;73.504;2024-02-16T11:44:50;102192.63;;;-23.26;68.87
59487;BME280;45298;54.918;73.504;2024-02-16T11:47:25;102249.75;;;-23.00;69.38
59487;BME280;45298;54.918;73.504;2024-02-16T11:50:09;102224.44;;;-23.18;69.31
59487;BME280;45298;54.918;73.504;2024-02-16T11:52:40;102240.34;;;-23.26;69.02
59487;BME280;45298;54.918;73.504;2024-02-16T11:55:10;102269.13;;;-23.15;69.35
59487;BME280;45298;54.918;73.504;2024-02-16T11:57:43;102261.91;;;-23.28;69.03
59487;BME280;45298;54.918;73.504;2024-02-16T12:00:17;102259.44;;;-23.35;69.16
59487;BME280;45298;54.918;73.504;2024-02-16T12:02:46;102266.59;;;-23.31;69.60
59487;BME280;45298;54.918;73.504;2024-02-16T12:05:16;102222.47;;;-23.60;69.44
59487;BME280;45298;54.918;73.504;2024-02-16T12:07:46;102231.06;;;-23.58;69.51
59487;BME280;45298;54.918;73.504;2024-02-16T12:10:15;102262.88;;;-23.42;69.83
59487;BME280;45298;54.918;73.504;2024-02-16T12:12:45;102297.28;;;-23.34;70.11
59487;BME280;45298;54.918;73.504;2024-02-16T12:15:14;102298.22;;;-23.40;69.67
59487;BME280;45298;54.918;73.504;2024-02-16T12:17:57;102292.66;;;-23.38;69.98
59487;BME280;45298;54.918;73.504;2024-02-16T12:20:30;102291.81;;;-23.46;69.90
59487;BME280;45298;54.918;73.504;2024-02-16T12:23:11;102279.28;;;-23.53;70.02
59487;BME280;45298;54.918;73.504;2024-02-16T12:25:41;102308.81;;;-23.43;70.12
59487;BME280;45298;54.918;73.504;2024-02-16T12:28:10;102317.22;;;-23.43;70.13
59487;BME280;45298;54.918;73.504;2024-02-16T12:30:41;102317.66;;;-23.47;70.23
59487;BME280;45298;54.918;73.504;2024-02-16T12:33:10;102313.56;;;-23.53;70.10
59487;BME280;45298;54.918;73.504;2024-02-16T12:35:39;102315.00;;;-23.55;70.06
59487;BME280;45298;54.918;73.504;2024-02-16T12:38:08;102266.72;;;-23.83;70.36
59487;BME280;45298;54.918;73.504;2024-02-16T12:40:49;102310.16;;;-23.61;70.21
59487;BME280;45298;54.918;73.504;2024-02-16T12:43:18;102310.88;;;-23.62;70.37
59487;BME280;45298;54.918;73.504;2024-02-16T12:45:48;102306.63;;;-23.63;70.71
59487;BME280;45298;54.918;73.504;2024-02-16T12:48:17;102310.16;;;-23.61;70.24